Time;durP1;ratioP1;P1;durP2;ratioP2;P2;SDS_P1;SDS_P2;PMS_P1;PMS_P2;Temp;Humidity;BMP_temperature;BMP_pressure;BME280_temperature;BME280_humidity;BME280_pressure;Samples;Min_cycle;Max_cycle;Signal;HPM_P1;HPM_P2
2021/09/22 00:01:10;;;;;;;19.10;15.23;;;11.30;79.80;;;;;;4980518;28;20046;-73
2021/09/22 00:03:36;;;;;;;20.52;14.88;;;11.30;80.00;;;;;;4981560;28;20037;-73
2021/09/22 00:06:02;;;;;;;17.00;12.73;;;11.20;80.00;;;;;;4978230;28;20505;-73
2021/09/22 00:08:28;;;;;;;17.10;13.85;;;11.20;80.10;;;;;;4979715;28;22176;-73
2021/09/22 00:10:54;;;;;;;17.80;13.70;;;11.20;80.30;;;;;;4983423;28;20041;-74
2021/09/22 00:13:19;;;;;;;17.38;13.15;;;11.20;80.20;;;;;;4982097;28;20046;-73
2021/09/22 00:15:45;;;;;;;16.90;13.18;;;11.20;80.20;;;;;;4986568;28;20035;-73
2021/09/22 00:18:11;;;;;;;19.45;12.95;;;11.20;80.40;;;;;;4978988;28;20081;-74
2021/09/22 00:20:36;;;;;;;17.20;13.48;;;11.10;80.70;;;;;;4979932;28;20042;-73
2021/09/22 00:23:03;;;;;;;17.50;14.18;;;11.10;80.90;;;;;;4986843;28;20092;-73
2021/09/22 00:25:32;;;;;;;18.88;14.05;;;11.10;80.90;;;;;;4982154;28;20042;-73
2021/09/22 00:27:58;;;;;;;19.50;13.95;;;11.10;80.90;;;;;;4988461;28;20034;-72
2021/09/22 00:30:24;;;;;;;22.05;13.50;;;11.10;81.00;;;;;;4986570;28;20458;-73
2021/09/22 00:32:51;;;;;;;17.73;14.15;;;11.10;80.90;;;;;;4989555;28;20093;-76
2021/09/22 00:35:17;;;;;;;17.67;14.55;;;11.00;80.80;;;;;;4983124;28;20177;-73
2021/09/22 00:37:43;;;;;;;18.80;14.88;;;11.00;80.90;;;;;;4984838;28;20117;-73
2021/09/22 00:40:09;;;;;;;17.75;14.23;;;11.00;81.10;;;;;;4983841;28;20031;-74
2021/09/22 00:42:35;;;;;;;20.00;14.68;;;11.00;81.20;;;;;;4986712;28;20413;-74
2021/09/22 00:45:09;;;;;;;17.85;13.88;;;11.00;81.20;;;;;;4988252;28;20046;-74
2021/09/22 00:47:35;;;;;;;19.42;14.73;;;10.90;81.40;;;;;;4983981;28;20066;-73
2021/09/22 00:50:02;;;;;;;20.92;14.52;;;10.90;81.60;;;;;;4987153;28;20045;-73
2021/09/22 00:52:28;;;;;;;17.80;14.18;;;10.90;81.60;;;;;;4986204;28;20085;-73
2021/09/22 00:54:54;;;;;;;19.35;14.85;;;10.90;81.50;;;;;;4987825;28;20042;-73
2021/09/22 00:57:20;;;;;;;18.33;13.73;;;10.90;81.50;;;;;;4984318;28;20529;-73
2021/09/22 00:59:46;;;;;;;16.92;13.95;;;10.90;81.30;;;;;;4987654;28;20117;-74
2021/09/22 01:02:12;;;;;;;19.85;14.20;;;10.80;81.30;;;;;;4989561;28;20141;-74
2021/09/22 01:04:38;;;;;;;18.20;14.13;;;10.80;81.20;;;;;;4986574;28;20577;-73
2021/09/22 01:07:07;;;;;;;19.60;14.07;;;10.80;81.10;;;;;;4981324;28;20124;-73
2021/09/22 01:09:33;;;;;;;16.38;12.93;;;10.80;81.10;;;;;;4994380;28;20042;-73
2021/09/22 01:11:59;;;;;;;19.08;14.07;;;10.80;81.10;;;;;;4999570;28;20953;-74
2021/09/22 01:14:25;;;;;;;19.92;14.60;;;10.80;80.90;;;;;;4994286;28;20425;-73
2021/09/22 01:16:51;;;;;;;19.13;13.93;;;10.80;80.80;;;;;;4981662;28;20501;-74
2021/09/22 01:19:19;;;;;;;16.10;13.00;;;10.70;81.00;;;;;;4981950;28;20030;-73
2021/09/22 01:21:51;;;;;;;20.50;13.38;;;10.70;81.00;;;;;;4988494;28;20675;-73
2021/09/22 01:24:17;;;;;;;17.67;14.02;;;10.70;81.00;;;;;;4982564;28;20030;-77
2021/09/22 01:26:43;;;;;;;18.60;14.48;;;10.60;81.00;;;;;;4986575;28;20509;-73
2021/09/22 01:29:09;;;;;;;18.77;13.95;;;10.60;81.10;;;;;;4982985;28;20077;-73
2021/09/22 01:31:36;;;;;;;19.15;13.75;;;10.60;81.20;;;;;;4985390;28;20046;-72
2021/09/22 01:34:04;;;;;;;19.58;14.40;;;10.60;81.10;;;;;;4983604;28;20117;-72
2021/09/22 01:36:30;;;;;;;17.13;13.50;;;10.60;81.20;;;;;;4984874;28;20074;-72
2021/09/22 01:38:56;;;;;;;17.83;13.02;;;10.60;81.10;;;;;;4982762;28;20058;-72
2021/09/22 01:41:22;;;;;;;18.30;14.15;;;10.60;80.90;;;;;;4979080;28;20129;-72
2021/09/22 01:43:47;;;;;;;18.10;13.38;;;10.60;80.90;;;;;;4979316;28;20034;-73
2021/09/22 01:46:13;;;;;;;18.58;13.93;;;10.50;81.10;;;;;;4985180;28;20046;-72
2021/09/22 01:48:39;;;;;;;18.23;13.70;;;10.50;81.20;;;;;;4980235;28;20418;-73
2021/09/22 01:51:07;;;;;;;17.75;12.80;;;10.50;81.30;;;;;;4986447;28;20053;-73
2021/09/22 01:53:34;;;;;;;17.73;13.77;;;10.40;81.40;;;;;;4986229;28;20034;-72
2021/09/22 01:56:00;;;;;;;18.90;14.10;;;10.40;81.60;;;;;;4988994;28;20117;-73
2021/09/22 01:58:28;;;;;;;17.10;13.88;;;10.40;81.70;;;;;;4983390;28;20393;-72
2021/09/22 02:00:56;;;;;;;18.90;14.07;;;10.40;81.70;;;;;;5004285;28;20040;-73
2021/09/22 02:03:22;;;;;;;18.00;14.90;;;10.40;81.70;;;;;;5009637;28;20029;-73
2021/09/22 02:05:47;;;;;;;17.02;13.50;;;10.40;81.60;;;;;;5005966;28;20033;-73
2021/09/22 02:08:13;;;;;;;18.98;13.68;;;10.30;81.50;;;;;;5003572;28;20125;-73
2021/09/22 02:10:40;;;;;;;17.83;13.40;;;10.30;81.40;;;;;;4984894;28;20027;-73
2021/09/22 02:13:07;;;;;;;18.05;14.32;;;10.20;81.60;;;;;;4984230;28;20042;-73
2021/09/22 02:15:32;;;;;;;23.15;14.93;;;10.20;81.70;;;;;;4988365;28;20053;-73
2021/09/22 02:17:58;;;;;;;24.30;15.15;;;10.20;81.90;;;;;;4990218;28;20387;-72
2021/09/22 02:20:24;;;;;;;21.40;14.90;;;10.20;82.00;;;;;;4985924;28;20030;-72
2021/09/22 02:22:51;;;;;;;21.67;14.23;;;10.20;82.10;;;;;;4989925;28;20061;-73
2021/09/22 02:25:17;;;;;;;20.42;14.65;;;10.20;82.00;;;;;;4987099;28;20051;-72
2021/09/22 02:27:44;;;;;;;20.85;13.77;;;10.10;82.10;;;;;;4983112;28;20388;-74
2021/09/22 02:30:12;;;;;;;18.20;13.00;;;10.10;82.00;;;;;;4982116;28;20133;-73
2021/09/22 02:32:40;;;;;;;22.80;14.10;;;10.10;82.10;;;;;;4987834;28;20116;-73
2021/09/22 02:35:07;;;;;;;20.73;12.80;;;10.00;82.20;;;;;;4986066;28;20065;-73
2021/09/22 02:37:34;;;;;;;18.38;13.90;;;10.10;82.10;;;;;;4991698;28;20038;-73
2021/09/22 02:39:59;;;;;;;20.50;13.88;;;10.00;82.10;;;;;;4982646;28;20038;-72
2021/09/22 02:42:25;;;;;;;20.40;15.43;;;10.00;82.00;;;;;;4984598;28;20482;-73
2021/09/22 02:44:51;;;;;;;19.42;14.25;;;9.90;82.00;;;;;;4979769;28;20034;-73
2021/09/22 02:47:19;;;;;;;17.70;13.82;;;9.90;82.10;;;;;;4985197;28;20026;-75
2021/09/22 02:49:46;;;;;;;19.45;14.52;;;9.90;82.30;;;;;;4984924;28;20093;-73
2021/09/22 02:52:12;;;;;;;19.52;14.30;;;9.90;82.40;;;;;;4983932;28;20073;-74
2021/09/22 02:54:38;;;;;;;19.70;14.27;;;9.90;82.30;;;;;;4988726;28;20038;-73
2021/09/22 02:57:04;;;;;;;20.98;15.43;;;9.80;82.30;;;;;;4984877;28;20497;-73
2021/09/22 02:59:29;;;;;;;18.75;14.27;;;9.80;82.40;;;;;;4981335;28;20057;-73
2021/09/22 03:01:55;;;;;;;20.40;15.43;;;9.80;82.40;;;;;;4985559;28;20089;-74
2021/09/22 03:04:21;;;;;;;20.92;15.23;;;9.70;82.60;;;;;;4983003;28;20046;-72
2021/09/22 03:06:47;;;;;;;19.65;14.45;;;9.80;82.80;;;;;;4987049;28;20367;-73
2021/09/22 03:09:12;;;;;;;19.67;15.10;;;9.70;82.70;;;;;;4979378;28;20035;-73
2021/09/22 03:11:38;;;;;;;20.42;15.48;;;9.80;82.80;;;;;;4987472;28;20042;-73
2021/09/22 03:14:04;;;;;;;22.73;16.17;;;9.70;82.80;;;;;;4982205;28;20034;-73
2021/09/22 03:16:32;;;;;;;20.20;15.45;;;9.60;82.90;;;;;;4984347;28;20069;-73
2021/09/22 03:18:58;;;;;;;22.00;16.33;;;9.70;83.00;;;;;;4980837;28;20078;-73
2021/09/22 03:21:24;;;;;;;20.60;16.65;;;9.60;83.10;;;;;;4981302;28;20089;-73
2021/09/22 03:23:50;;;;;;;20.52;15.23;;;9.70;83.20;;;;;;4984295;28;20030;-74
2021/09/22 03:26:15;;;;;;;21.23;14.93;;;9.60;83.10;;;;;;4979511;28;20052;-76
2021/09/22 03:28:41;;;;;;;19.73;15.20;;;9.60;82.90;;;;;;4979873;28;20049;-75
2021/09/22 03:31:06;;;;;;;19.02;15.27;;;9.60;82.70;;;;;;4979130;28;20034;-73
2021/09/22 03:33:32;;;;;;;18.75;15.23;;;9.60;82.70;;;;;;4981970;28;20073;-73
2021/09/22 03:35:58;;;;;;;20.98;15.57;;;9.50;82.90;;;;;;4980969;28;20046;-73
2021/09/22 03:38:24;;;;;;;20.77;15.18;;;9.60;82.90;;;;;;4979325;28;20030;-73
2021/09/22 03:40:50;;;;;;;19.13;15.73;;;9.50;82.80;;;;;;4990239;28;20088;-73
2021/09/22 03:43:16;;;;;;;21.33;16.30;;;9.50;82.90;;;;;;4982531;28;20043;-73
2021/09/22 03:45:41;;;;;;;19.80;14.65;;;9.50;83.00;;;;;;4980675;28;20089;-74
2021/09/22 03:48:07;;;;;;;19.70;15.25;;;9.40;83.10;;;;;;4982050;28;20044;-73
2021/09/22 03:50:33;;;;;;;20.50;15.18;;;9.40;83.10;;;;;;4980514;28;20043;-73
2021/09/22 03:52:59;;;;;;;18.38;14.55;;;9.40;83.00;;;;;;4979580;28;20101;-72
2021/09/22 03:55:25;;;;;;;20.63;14.75;;;9.40;83.00;;;;;;4988128;28;20038;-73
2021/09/22 03:57:50;;;;;;;19.40;15.07;;;9.40;82.90;;;;;;4987862;28;20031;-73
2021/09/22 04:00:16;;;;;;;20.13;14.68;;;9.40;83.00;;;;;;4982355;28;20079;-73
2021/09/22 04:02:42;;;;;;;22.60;15.50;;;9.30;82.90;;;;;;4990703;28;20042;-73
2021/09/22 04:05:08;;;;;;;23.58;14.90;;;9.30;82.90;;;;;;4987261;28;20034;-73
2021/09/22 04:07:34;;;;;;;21.77;15.88;;;9.30;82.90;;;;;;4983478;28;20038;-72
2021/09/22 04:09:59;;;;;;;20.90;16.08;;;9.40;82.80;;;;;;4979997;28;20030;-72
2021/09/22 04:12:26;;;;;;;21.52;14.85;;;9.30;82.90;;;;;;4983928;28;20125;-73
2021/09/22 04:14:53;;;;;;;20.35;14.32;;;9.30;82.80;;;;;;4986541;28;20126;-73
2021/09/22 04:17:19;;;;;;;19.52;15.25;;;9.30;82.90;;;;;;4985585;28;20034;-73
2021/09/22 04:19:45;;;;;;;18.83;14.05;;;9.30;82.90;;;;;;4987697;28;20048;-72
2021/09/22 04:22:10;;;;;;;18.17;13.80;;;9.30;82.80;;;;;;4985571;28;20061;-73
2021/09/22 04:24:36;;;;;;;19.77;15.07;;;9.20;82.70;;;;;;4994218;28;20121;-72
2021/09/22 04:27:02;;;;;;;20.40;13.95;;;9.20;82.80;;;;;;4987441;28;20398;-73
2021/09/22 04:29:27;;;;;;;18.60;14.40;;;9.20;82.80;;;;;;4991158;28;20027;-72
2021/09/22 04:31:53;;;;;;;19.98;14.75;;;9.30;82.70;;;;;;4980971;28;20047;-73
2021/09/22 04:34:19;;;;;;;19.70;15.23;;;9.20;82.70;;;;;;4990524;28;20484;-73
2021/09/22 04:36:45;;;;;;;20.33;15.82;;;9.20;82.70;;;;;;4985361;28;20066;-73
2021/09/22 04:39:11;;;;;;;19.80;15.60;;;9.20;82.70;;;;;;4985696;28;20027;-73
2021/09/22 04:41:37;;;;;;;19.77;14.73;;;9.20;82.80;;;;;;4984715;28;20084;-73
2021/09/22 04:44:02;;;;;;;19.80;14.38;;;9.20;82.80;;;;;;4987021;28;20038;-72
2021/09/22 04:46:28;;;;;;;22.20;15.38;;;9.20;82.80;;;;;;4990426;28;20131;-73
2021/09/22 04:48:54;;;;;;;21.85;15.18;;;9.20;82.50;;;;;;4982676;28;20077;-73
2021/09/22 04:51:20;;;;;;;22.25;15.55;;;9.10;82.60;;;;;;4985125;28;20034;-72
2021/09/22 04:53:46;;;;;;;20.45;14.70;;;9.10;82.80;;;;;;4984814;28;20521;-73
2021/09/22 04:56:14;;;;;;;20.02;15.07;;;9.10;82.60;;;;;;4979537;28;20030;-73
2021/09/22 04:58:40;;;;;;;22.13;15.52;;;9.10;82.60;;;;;;4982609;28;20034;-73
2021/09/22 05:01:05;;;;;;;24.38;15.63;;;9.10;82.50;;;;;;4982130;28;20031;-73
2021/09/22 05:03:31;;;;;;;19.85;15.57;;;9.10;82.70;;;;;;4998637;28;20389;-72
2021/09/22 05:05:58;;;;;;;20.55;16.00;;;9.10;82.90;;;;;;4984903;28;20043;-72
2021/09/22 05:08:24;;;;;;;25.80;16.05;;;9.10;83.00;;;;;;4984755;28;20027;-73
2021/09/22 05:10:50;;;;;;;22.50;17.25;;;9.10;82.90;;;;;;4985120;28;20029;-75
2021/09/22 05:13:15;;;;;;;22.65;16.77;;;9.00;82.90;;;;;;4986796;28;20030;-73
2021/09/22 05:15:41;;;;;;;22.65;15.13;;;9.00;83.00;;;;;;4988503;28;20058;-73
2021/09/22 05:18:07;;;;;;;22.60;16.42;;;9.00;83.20;;;;;;4986319;28;20069;-72
2021/09/22 05:20:32;;;;;;;22.98;16.60;;;9.10;83.40;;;;;;4985509;28;20034;-81
2021/09/22 05:22:58;;;;;;;20.48;15.65;;;9.10;83.50;;;;;;4984371;28;20046;-70
2021/09/22 05:25:24;;;;;;;22.50;15.80;;;9.10;83.40;;;;;;4983416;28;20065;-68
2021/09/22 05:27:49;;;;;;;20.52;16.05;;;9.10;83.20;;;;;;4982737;28;20441;-69
2021/09/22 05:30:15;;;;;;;22.00;16.27;;;9.10;83.10;;;;;;4986347;28;20038;-69
2021/09/22 05:32:41;;;;;;;21.00;14.82;;;9.10;83.00;;;;;;4989379;28;20049;-73
2021/09/22 05:35:08;;;;;;;22.10;15.52;;;9.10;83.10;;;;;;4987097;28;20088;-69
2021/09/22 05:37:33;;;;;;;21.33;15.55;;;9.10;83.10;;;;;;4986885;28;20038;-70
2021/09/22 05:40:00;;;;;;;21.95;15.93;;;9.10;83.00;;;;;;4985437;28;20041;-69
2021/09/22 05:42:29;;;;;;;23.63;15.80;;;9.10;83.00;;;;;;4985467;28;20026;-69
2021/09/22 05:44:54;;;;;;;21.63;15.20;;;9.10;82.80;;;;;;4989594;28;20041;-71
2021/09/22 05:47:20;;;;;;;20.10;15.07;;;9.10;82.80;;;;;;4988421;28;21910;-69
2021/09/22 05:49:46;;;;;;;22.08;15.98;;;9.10;82.80;;;;;;4980412;28;20038;-68
2021/09/22 05:52:12;;;;;;;20.95;15.55;;;9.10;82.70;;;;;;4988184;28;20474;-68
2021/09/22 05:54:37;;;;;;;22.67;16.17;;;9.20;82.60;;;;;;4990825;28;20038;-68
2021/09/22 05:57:03;;;;;;;20.83;15.27;;;9.10;82.60;;;;;;4987368;28;20060;-70
2021/09/22 05:59:29;;;;;;;21.02;15.55;;;9.20;82.70;;;;;;4983692;28;20475;-73
2021/09/22 06:01:56;;;;;;;26.10;17.23;;;9.20;82.70;;;;;;4983520;28;20121;-68
2021/09/22 06:04:22;;;;;;;28.58;17.45;;;9.30;82.70;;;;;;4978621;28;20126;-69
2021/09/22 06:06:47;;;;;;;24.80;16.95;;;9.30;82.70;;;;;;4988592;28;20161;-69
2021/09/22 06:09:13;;;;;;;23.70;16.58;;;9.40;82.70;;;;;;4984140;28;20031;-68
2021/09/22 06:11:39;;;;;;;21.90;15.57;;;9.50;82.70;;;;;;4984395;28;20046;-69
2021/09/22 06:14:05;;;;;;;24.77;17.20;;;9.60;82.60;;;;;;4986005;28;20057;-69
2021/09/22 06:16:30;;;;;;;23.67;17.27;;;9.60;82.60;;;;;;4984078;28;20039;-69
2021/09/22 06:18:57;;;;;;;21.10;16.15;;;9.80;82.40;;;;;;4986398;28;20109;-71
2021/09/22 06:21:23;;;;;;;21.88;16.48;;;9.90;82.50;;;;;;4980200;28;20058;-69
2021/09/22 06:23:53;;;;;;;24.77;16.27;;;9.90;82.40;;;;;;4986432;28;20046;-69
2021/09/22 06:26:23;;;;;;;25.08;17.75;;;10.00;82.30;;;;;;4978548;28;20038;-67
2021/09/22 06:28:49;;;;;;;26.90;17.13;;;10.10;82.20;;;;;;4985500;28;20037;-69
2021/09/22 06:31:15;;;;;;;21.55;15.15;;;10.20;82.00;;;;;;4984109;28;20027;-68
2021/09/22 06:33:41;;;;;;;23.42;16.17;;;10.40;81.50;;;;;;4987286;28;20084;-68
2021/09/22 06:36:07;;;;;;;21.30;15.93;;;10.60;80.90;;;;;;4986246;28;20031;-68
2021/09/22 06:38:32;;;;;;;21.33;15.95;;;10.70;80.50;;;;;;4984996;28;20110;-68
2021/09/22 06:40:58;;;;;;;21.38;16.42;;;10.90;80.10;;;;;;4981405;28;20050;-69
2021/09/22 06:43:24;;;;;;;21.10;16.50;;;11.00;80.10;;;;;;4985562;28;20035;-68
2021/09/22 06:45:50;;;;;;;24.75;17.83;;;11.00;79.80;;;;;;4986227;28;20078;-71
2021/09/22 06:48:19;;;;;;;22.83;15.52;;;11.10;79.70;;;;;;4985042;28;20062;-68
2021/09/22 06:50:46;;;;;;;23.05;16.23;;;11.10;80.00;;;;;;4982581;28;20045;-72
2021/09/22 06:53:11;;;;;;;25.77;17.10;;;11.10;79.90;;;;;;4987159;28;20525;-68
2021/09/22 06:55:38;;;;;;;25.67;18.10;;;11.20;80.00;;;;;;4985932;28;20041;-68
2021/09/22 06:58:03;;;;;;;22.98;17.95;;;11.30;80.00;;;;;;4986521;28;20073;-70
2021/09/22 07:00:29;;;;;;;22.63;17.48;;;11.40;80.10;;;;;;4988091;28;20474;-69
2021/09/22 07:02:55;;;;;;;26.33;18.80;;;11.40;80.10;;;;;;4980361;28;20941;-70
2021/09/22 07:05:20;;;;;;;25.08;18.00;;;11.50;80.10;;;;;;4981102;28;20038;-69
2021/09/22 07:07:46;;;;;;;25.02;17.63;;;11.60;80.00;;;;;;4983344;28;20053;-69
2021/09/22 07:10:14;;;;;;;25.67;18.40;;;11.70;79.90;;;;;;4983752;28;20628;-69
2021/09/22 07:12:41;;;;;;;23.90;18.17;;;11.80;79.90;;;;;;4979819;28;20086;-71
2021/09/22 07:15:07;;;;;;;24.05;18.55;;;11.90;79.60;;;;;;4979993;28;20030;-68
2021/09/22 07:17:33;;;;;;;25.63;20.13;;;12.10;79.60;;;;;;4980222;28;20034;-69
2021/09/22 07:19:58;;;;;;;25.88;20.45;;;12.10;79.00;;;;;;4979703;28;20061;-69
2021/09/22 07:22:24;;;;;;;27.38;20.45;;;12.20;79.20;;;;;;4976970;28;20077;-69
2021/09/22 07:24:50;;;;;;;28.88;20.75;;;12.30;79.10;;;;;;4982152;28;20084;-69
2021/09/22 07:27:16;;;;;;;28.45;22.35;;;12.40;79.00;;;;;;4983465;28;20034;-70
2021/09/22 07:29:42;;;;;;;37.60;24.65;;;12.60;78.70;;;;;;4983322;28;20038;-68
2021/09/22 07:32:09;;;;;;;35.67;24.70;;;12.60;78.90;;;;;;4981158;28;20043;-69
2021/09/22 07:34:36;;;;;;;31.73;22.05;;;12.70;78.20;;;;;;4981432;28;20039;-68
2021/09/22 07:37:07;;;;;;;33.95;23.77;;;12.90;78.40;;;;;;4984287;28;20038;-68
2021/09/22 07:39:36;;;;;;;33.80;22.92;;;13.00;77.80;;;;;;4984278;28;20371;-68
2021/09/22 07:42:02;;;;;;;34.72;23.10;;;13.20;77.30;;;;;;4983767;28;20482;-69
2021/09/22 07:44:28;;;;;;;31.75;21.60;;;13.30;77.30;;;;;;4980178;28;20039;-69
2021/09/22 07:46:53;;;;;;;32.22;22.05;;;13.60;77.70;;;;;;4979159;28;20065;-69
2021/09/22 07:49:19;;;;;;;32.55;22.02;;;13.70;76.50;;;;;;4983452;28;20034;-68
2021/09/22 07:51:45;;;;;;;29.50;22.85;;;13.90;75.40;;;;;;4982427;28;20989;-69
2021/09/22 07:54:10;;;;;;;31.38;24.13;;;14.10;75.00;;;;;;4981839;28;20045;-69
2021/09/22 07:56:36;;;;;;;31.85;23.90;;;14.40;74.00;;;;;;4981211;28;20065;-68
2021/09/22 07:59:02;;;;;;;30.67;23.00;;;14.70;72.90;;;;;;4979461;28;20037;-70
2021/09/22 08:01:28;;;;;;;33.50;22.63;;;14.90;71.80;;;;;;4983621;28;20457;-72
2021/09/22 08:03:53;;;;;;;31.73;23.20;;;15.10;71.70;;;;;;4981012;28;20081;-69
2021/09/22 08:06:19;;;;;;;28.15;22.23;;;15.40;71.10;;;;;;4981902;28;20047;-69
2021/09/22 08:08:45;;;;;;;27.60;21.70;;;15.60;69.90;;;;;;4979774;28;20038;-69
2021/09/22 08:11:11;;;;;;;28.75;21.08;;;15.80;69.30;;;;;;4985593;28;20038;-69
2021/09/22 08:13:38;;;;;;;28.80;20.45;;;16.00;68.20;;;;;;4980512;28;20034;-69
2021/09/22 08:16:04;;;;;;;34.17;21.70;;;16.20;67.80;;;;;;4985279;28;20046;-69
2021/09/22 08:18:30;;;;;;;29.75;20.73;;;16.30;67.10;;;;;;4984122;28;20046;-71
2021/09/22 08:20:56;;;;;;;33.92;21.58;;;16.40;67.10;;;;;;4986279;28;20502;-69
2021/09/22 08:23:22;;;;;;;26.40;19.85;;;16.60;65.80;;;;;;4984467;28;20457;-69
2021/09/22 08:25:48;;;;;;;33.53;20.83;;;16.70;66.20;;;;;;4986219;28;20125;-76
2021/09/22 08:28:14;;;;;;;27.98;19.55;;;16.80;64.50;;;;;;4983717;28;20117;-73
2021/09/22 08:30:40;;;;;;;30.65;20.52;;;16.80;64.50;;;;;;4981467;28;20468;-70
2021/09/22 08:33:06;;;;;;;27.45;19.58;;;16.90;64.20;;;;;;4982521;28;20129;-70
2021/09/22 08:35:32;;;;;;;24.75;19.20;;;17.00;63.70;;;;;;4977885;28;20050;-70
2021/09/22 08:37:58;;;;;;;24.92;20.33;;;17.10;64.50;;;;;;4985800;28;20520;-70
2021/09/22 08:40:24;;;;;;;26.02;17.90;;;17.10;63.20;;;;;;4984172;28;20042;-69
2021/09/22 08:42:50;;;;;;;25.73;17.52;;;17.30;63.70;;;;;;4988896;28;20048;-69
2021/09/22 08:45:16;;;;;;;22.02;16.50;;;17.40;62.10;;;;;;4985528;28;20098;-70
2021/09/22 08:47:43;;;;;;;22.90;17.08;;;17.50;62.30;;;;;;4986991;28;20043;-69
2021/09/22 08:50:10;;;;;;;21.67;17.67;;;17.50;62.60;;;;;;4994364;28;20141;-69
2021/09/22 08:52:36;;;;;;;24.92;17.95;;;17.50;62.90;;;;;;4988794;28;20047;-69
2021/09/22 08:55:03;;;;;;;26.20;18.17;;;17.50;62.10;;;;;;4987719;28;20044;-70
2021/09/22 08:57:29;;;;;;;22.77;17.48;;;17.60;62.20;;;;;;4979593;28;20038;-71
2021/09/22 08:59:54;;;;;;;24.13;18.67;;;17.60;63.10;;;;;;4984981;28;20053;-68
2021/09/22 09:02:20;;;;;;;23.65;18.10;;;17.70;62.30;;;;;;4986795;28;20042;-68
2021/09/22 09:05:05;;;;;;;25.77;19.40;;;17.60;60.50;;;;;;4988824;28;20449;-68
2021/09/22 09:07:32;;;;;;;25.73;18.55;;;17.70;60.70;;;;;;4984637;28;20467;-73
2021/09/22 09:10:07;;;;;;;25.75;17.83;;;17.80;60.30;;;;;;4989242;28;20039;-73
2021/09/22 09:12:33;;;;;;;23.25;17.52;;;17.70;60.60;;;;;;4989204;28;20521;-70
2021/09/22 09:15:02;;;;;;;24.33;17.35;;;17.80;60.90;;;;;;4986153;28;20078;-73
2021/09/22 09:17:49;;;;;;;23.23;17.17;;;18.00;59.60;;;;;;4980872;28;20413;-69
2021/09/22 09:20:21;;;;;;;28.05;17.42;;;18.10;58.00;;;;;;4980505;28;20105;-69
2021/09/22 09:23:04;;;;;;;27.85;17.27;;;18.20;57.20;;;;;;4984028;28;20042;-70
2021/09/22 09:25:39;;;;;;;23.60;17.03;;;18.60;56.20;;;;;;4984739;28;20042;-71
2021/09/22 09:28:23;;;;;;;25.25;16.10;;;18.80;56.00;;;;;;4987260;28;20485;-69
2021/09/22 09:30:53;;;;;;;25.48;16.70;;;19.10;54.70;;;;;;4987909;28;20057;-68
2021/09/22 09:33:38;;;;;;;24.58;15.50;;;19.30;53.80;;;;;;4986881;28;20042;-71
2021/09/22 09:36:14;;;;;;;;;;;19.50;53.50;;;;;;4986065;28;20049;-75
2021/09/22 09:38:41;;;;;;;17.98;13.20;;;19.50;52.50;;;;;;4984258;28;19918;-69
2021/09/22 09:41:06;;;;;;;21.20;14.20;;;19.50;51.40;;;;;;4978337;28;20437;-69
2021/09/22 09:43:32;;;;;;;21.42;14.75;;;19.70;51.70;;;;;;4982871;28;20042;-75
2021/09/22 09:45:58;;;;;;;20.60;12.60;;;19.80;52.00;;;;;;4984559;28;20042;-71
2021/09/22 09:48:23;;;;;;;18.48;13.02;;;19.90;51.40;;;;;;4985786;28;20034;-69
2021/09/22 09:50:58;;;;;;;17.08;11.32;;;20.30;50.40;;;;;;4987078;28;20449;-70
2021/09/22 09:53:31;;;;;;;15.73;11.30;;;20.30;49.30;;;;;;4984858;28;20045;-70
2021/09/22 09:56:00;;;;;;;15.88;10.00;;;20.60;48.60;;;;;;4979735;28;20035;-72
2021/09/22 09:58:47;;;;;;;15.70;11.13;;;20.70;47.70;;;;;;4985795;28;20026;-69
2021/09/22 10:01:15;;;;;;;18.95;13.43;;;20.80;47.60;;;;;;4983744;28;20034;-69
2021/09/22 10:03:41;;;;;;;18.25;12.35;;;21.00;48.90;;;;;;4986707;28;20039;-69
2021/09/22 10:06:08;;;;;;;17.38;11.70;;;20.80;48.90;;;;;;4986857;28;20385;-70
2021/09/22 10:08:34;;;;;;;17.50;12.30;;;20.80;48.10;;;;;;4988080;28;21045;-70
2021/09/22 10:11:03;;;;;;;15.68;12.15;;;20.60;48.80;;;;;;4984903;28;20038;-69
2021/09/22 10:13:31;;;;;;;14.10;10.45;;;20.40;48.80;;;;;;4985153;28;20395;-69
2021/09/22 10:15:57;;;;;;;14.90;10.68;;;20.40;47.10;;;;;;4988378;28;20114;-68
2021/09/22 10:18:24;;;;;;;18.27;11.43;;;20.20;46.80;;;;;;4986929;28;20089;-69
2021/09/22 10:20:50;;;;;;;14.85;10.93;;;20.30;47.10;;;;;;4986412;28;20028;-69
2021/09/22 10:23:17;;;;;;;16.75;10.80;;;20.40;46.50;;;;;;4984539;28;20041;-71
2021/09/22 10:25:45;;;;;;;16.88;10.57;;;20.60;47.00;;;;;;4987270;28;20417;-69
2021/09/22 10:28:12;;;;;;;14.18;10.05;;;20.70;46.80;;;;;;4987610;28;20034;-69
2021/09/22 10:30:41;;;;;;;16.05;10.98;;;20.90;46.90;;;;;;4985069;28;20096;-69
2021/09/22 10:33:42;;;;;;;14.90;10.55;;;21.10;45.40;;;;;;4981752;28;20042;-69
2021/09/22 10:36:08;;;;;;;15.13;10.40;;;21.20;45.50;;;;;;4993818;28;20061;-68
2021/09/22 10:38:38;;;;;;;17.30;10.88;;;21.40;45.60;;;;;;4989117;28;20457;-69
2021/09/22 10:41:04;;;;;;;13.32;9.23;;;21.60;45.20;;;;;;4990316;28;20035;-69
2021/09/22 10:43:35;;;;;;;17.95;11.05;;;21.50;44.00;;;;;;4991095;28;20125;-70
2021/09/22 10:46:10;;;;;;;15.18;9.88;;;21.40;44.40;;;;;;4982478;28;20132;-71
2021/09/22 10:48:59;;;;;;;15.98;10.82;;;21.30;43.40;;;;;;4988484;28;20046;-70
2021/09/22 10:51:32;;;;;;;14.82;9.93;;;21.30;44.20;;;;;;4990515;28;20049;-69
2021/09/22 10:54:07;;;;;;;14.30;9.73;;;21.20;43.70;;;;;;4995293;28;20088;-70
2021/09/22 10:56:33;;;;;;;15.60;10.10;;;21.30;43.70;;;;;;4989518;28;20122;-70
2021/09/22 10:59:06;;;;;;;16.60;8.63;;;21.40;44.90;;;;;;4987153;28;20110;-74
2021/09/22 11:01:31;;;;;;;14.02;9.77;;;21.30;44.90;;;;;;4987605;28;20494;-70
2021/09/22 11:03:57;;;;;;;13.70;11.15;;;21.50;43.80;;;;;;4991004;28;20049;-69
2021/09/22 11:06:45;;;;;;;15.02;11.20;;;21.40;43.90;;;;;;5000597;28;20121;-69
2021/09/22 11:09:11;;;;;;;16.00;8.73;;;21.60;43.50;;;;;;5013885;28;20059;-68
2021/09/22 11:14:34;;;;;;;11.07;7.40;;;21.60;42.20;;;;;;5003282;28;20045;-68
2021/09/22 11:17:01;;;;;;;15.43;8.85;;;21.70;42.70;;;;;;4995436;28;20035;-68
2021/09/22 11:19:28;;;;;;;15.10;9.27;;;21.60;42.80;;;;;;5000259;28;20545;-68
2021/09/22 11:21:54;;;;;;;12.43;8.50;;;21.70;42.40;;;;;;5004941;28;20043;-70
2021/09/22 11:24:23;;;;;;;11.43;7.65;;;21.60;43.20;;;;;;5008633;28;20393;-69
2021/09/22 11:26:49;;;;;;;14.20;8.32;;;21.70;42.80;;;;;;4993747;28;20121;-69
2021/09/22 11:29:28;;;;;;;13.82;8.60;;;21.80;43.10;;;;;;5004414;28;20133;-69
2021/09/22 11:31:54;;;;;;;13.38;8.02;;;21.80;43.30;;;;;;4992798;28;20437;-69
2021/09/22 11:34:48;;;;;;;11.95;8.52;;;21.90;42.50;;;;;;4996201;28;20039;-69
2021/09/22 11:37:14;;;;;;;12.63;8.90;;;22.00;43.40;;;;;;5001050;28;20026;-71
2021/09/22 11:39:42;;;;;;;14.32;9.98;;;21.90;44.00;;;;;;5000634;28;20048;-68
2021/09/22 11:42:09;;;;;;;15.63;9.50;;;21.70;43.70;;;;;;4996945;28;20034;-71
2021/09/22 11:44:36;;;;;;;15.23;10.13;;;21.60;43.80;;;;;;4995531;28;20509;-71
2021/09/22 11:47:06;;;;;;;15.80;9.40;;;21.70;45.00;;;;;;4997509;28;20474;-69
2021/09/22 11:49:37;;;;;;;15.52;9.20;;;21.90;44.10;;;;;;4992709;28;20061;-75
2021/09/22 11:52:04;;;;;;;16.17;9.70;;;22.10;44.20;;;;;;4996202;28;20111;-72
2021/09/22 11:54:30;;;;;;;15.55;9.75;;;22.20;44.80;;;;;;4996138;28;20038;-68
2021/09/22 11:57:06;;;;;;;16.88;10.25;;;22.30;43.60;;;;;;4995098;28;20382;-73
2021/09/22 11:59:35;;;;;;;15.38;10.27;;;22.30;42.80;;;;;;5001757;28;20076;-71
2021/09/22 12:02:02;;;;;;;13.95;10.50;;;22.10;43.70;;;;;;5001107;28;20058;-69
2021/09/22 12:04:32;;;;;;;16.02;10.93;;;22.10;45.20;;;;;;5004682;28;20034;-69
2021/09/22 12:06:58;;;;;;;16.73;10.38;;;22.10;43.60;;;;;;5008184;28;20029;-69
2021/09/22 12:09:23;;;;;;;12.80;8.82;;;22.10;43.50;;;;;;5004819;28;20058;-71
2021/09/22 12:12:06;;;;;;;16.45;9.80;;;22.00;44.70;;;;;;4998731;28;20069;-69
2021/09/22 12:14:32;;;;;;;16.45;10.52;;;22.10;45.10;;;;;;4998072;28;20163;-69
2021/09/22 12:17:28;;;;;;;15.57;10.60;;;22.30;44.60;;;;;;5008233;28;20034;-70
2021/09/22 12:19:55;;;;;;;17.05;10.90;;;22.30;44.30;;;;;;5003771;28;20058;-69
2021/09/22 12:22:24;;;;;;;15.45;10.52;;;22.30;44.50;;;;;;5005829;28;20030;-69
2021/09/22 12:24:50;;;;;;;14.50;9.15;;;22.50;44.40;;;;;;5002498;28;20026;-70
2021/09/22 12:27:20;;;;;;;15.82;10.10;;;22.50;43.90;;;;;;5005210;28;20485;-69
2021/09/22 12:29:49;;;;;;;14.75;10.48;;;22.50;43.40;;;;;;5006881;28;20112;-72
2021/09/22 12:32:15;;;;;;;13.18;9.27;;;22.40;43.60;;;;;;5002407;28;20064;-69
2021/09/22 12:34:43;;;;;;;13.65;9.93;;;22.40;43.60;;;;;;5002641;28;20109;-71